KISM/ISM METAR and TAF weather

Enter ICAO airport designator
Station Type Date Time Source
KISM METAR 2019/07/18 10:56 UTC NOAA

KISM 181056Z 00000KT 10SM CLR 23/23 A3012 RMK AO2 SLP202 T02330228 PNO $


Station Type Date Time Source
KISM Decoded METAR 2019/07/18 10:56 UTC NOAA

Orlando, Kissimmee Municipal Airport, FL, United States (KISM) 28-17-23N 081-26-14W
Jul 18, 2019 - 06:56 AM EDT / 2019.07.18 1056 UTC
Wind: Calm:0
Visibility: 10 mile(s):0
Sky conditions: clear
Temperature: 73.9 F (23.3 C)
Dew Point: 73.0 F (22.8 C)
Relative Humidity: 97%
Pressure (altimeter): 30.12 in. Hg (1019 hPa)
ob: KISM 181056Z 00000KT 10SM CLR 23/23 A3012 RMK AO2 SLP202 T02330228 PNO
cycle: 11

Station Type Date Time Source
KISM TAF 2019/07/18 06:30 UTC NOAA

TAF KISM 180528Z 1806/1906 00000KT P6SM SCT250
FM181400 18005KT P6SM SCT030 SCT250
FM182000 15007KT P6SM VCTS SCT040CB SCT250
FM190100 18004KT P6SM SCT100 BKN250

Example: see airport list